Time;durP1;ratioP1;P1;durP2;ratioP2;P2;SDS_P1;SDS_P2;PMS_P1;PMS_P2;Temp;Humidity;BMP_temperature;BMP_pressure;BME280_temperature;BME280_humidity;BME280_pressure;Samples;Min_cycle;Max_cycle;Signal;HPM_P1;HPM_P2
2024/03/16 00:01:57;;;;;;;;;;;;;;;13.70;65.60;99697.09;4115267;28;20286;-68
2024/03/16 00:03:57;;;;;;;;;;;;;;;13.34;66.01;99702.91;4129861;28;19956;-67
2024/03/16 00:05:58;;;;;;;;;;;;;;;13.42;66.11;99702.91;4114915;28;20326;-67
2024/03/16 00:07:58;;;;;;;;;;;;;;;13.33;66.60;99703.91;4118650;28;19997;-68
2024/03/16 00:09:59;;;;;;;;;;;;;;;13.60;65.87;99699.19;4123262;28;19941;-69
2024/03/16 00:11:59;;;;;;;;;;;;;;;13.61;65.33;99698.16;4122788;28;19944;-68
2024/03/16 00:14:04;;;;;;;;;;;;;;;13.67;64.96;99695.63;4121477;28;19981;-67
2024/03/16 00:16:04;;;;;;;;;;;;;;;13.78;65.32;99683.66;4120060;28;19910;-67
2024/03/16 00:18:04;;;;;;;;;;;;;;;13.71;65.19;99691.59;4117167;28;20282;-67
2024/03/16 00:20:10;;;;;;;;;;;;;;;13.66;65.06;99691.25;4112973;28;19930;-67
2024/03/16 00:22:11;;;;;;;;;;;;;;;13.64;65.56;99697.81;4114849;28;19961;-68
2024/03/16 00:24:11;;;;;;;;;;;;;;;13.63;65.24;99707.72;4114754;28;19910;-67
2024/03/16 00:26:12;;;;;;;;;;;;;;;13.49;65.75;99695.84;4114742;28;20012;-66
2024/03/16 00:28:12;;;;;;;;;;;;;;;13.80;65.03;99699.59;4115150;28;19934;-68
2024/03/16 00:30:12;;;;;;;;;;;;;;;13.84;65.11;99696.38;4114784;28;20374;-68
2024/03/16 00:32:13;;;;;;;;;;;;;;;13.49;66.04;99698.53;4114489;28;19918;-68
2024/03/16 00:34:14;;;;;;;;;;;;;;;13.60;65.82;99699.19;4114832;28;19913;-68
2024/03/16 00:36:17;;;;;;;;;;;;;;;13.54;65.92;99701.53;4114438;28;19997;-67
2024/03/16 00:38:17;;;;;;;;;;;;;;;13.34;66.43;99703.75;4114701;28;19922;-68
2024/03/16 00:40:19;;;;;;;;;;;;;;;13.52;66.37;99700.88;4114499;28;19910;-66
2024/03/16 00:42:20;;;;;;;;;;;;;;;13.42;66.22;99702.91;4114736;28;19910;-68
2024/03/16 00:44:20;;;;;;;;;;;;;;;13.55;65.94;99705.91;4128802;28;19939;-67
2024/03/16 00:46:20;;;;;;;;;;;;;;;13.46;65.84;99698.88;4114341;28;19910;-67
2024/03/16 00:48:20;;;;;;;;;;;;;;;13.76;65.73;99696.44;4114251;28;19910;-66
2024/03/16 00:50:21;;;;;;;;;;;;;;;13.60;65.67;99700.00;4127856;28;20359;-68
2024/03/16 00:52:21;;;;;;;;;;;;;;;13.72;65.31;99700.47;4114329;28;19910;-68
2024/03/16 00:54:22;;;;;;;;;;;;;;;13.54;65.58;99706.09;4113390;28;19918;-67
2024/03/16 00:56:22;;;;;;;;;;;;;;;13.30;66.43;99704.25;4114113;28;20371;-68
2024/03/16 00:58:22;;;;;;;;;;;;;;;13.41;66.08;99715.50;4115137;28;20357;-68
2024/03/16 01:00:22;;;;;;;;;;;;;;;13.11;67.13;99711.66;4129399;28;20542;-68
2024/03/16 01:02:23;;;;;;;;;;;;;;;13.26;67.34;99715.31;4114441;28;19917;-68
2024/03/16 01:04:24;;;;;;;;;;;;;;;13.38;67.31;99714.97;4114945;28;20445;-67
2024/03/16 01:06:24;;;;;;;;;;;;;;;13.33;67.74;99717.31;4114677;28;20268;-67
2024/03/16 01:08:25;;;;;;;;;;;;;;;12.90;68.65;99723.75;4117117;28;19986;-66
2024/03/16 01:10:25;;;;;;;;;;;;;;;13.08;68.59;99715.50;4121459;28;19914;-68
2024/03/16 01:12:25;;;;;;;;;;;;;;;13.03;69.01;99707.13;4122018;28;19969;-66
2024/03/16 01:14:26;;;;;;;;;;;;;;;13.04;68.41;99699.91;4120437;28;20395;-69
2024/03/16 01:16:26;;;;;;;;;;;;;;;13.16;68.89;99706.63;4123400;28;19997;-68
2024/03/16 01:18:26;;;;;;;;;;;;;;;13.33;68.46;99698.53;4125199;28;19910;-66
2024/03/16 01:20:27;;;;;;;;;;;;;;;13.31;68.40;99703.25;4126864;28;19910;-66
2024/03/16 01:22:36;;;;;;;;;;;;;;;13.24;68.07;99703.91;4128638;28;19918;-69
2024/03/16 01:24:36;;;;;;;;;;;;;;;13.19;68.71;99703.59;4129343;28;19910;-68
2024/03/16 01:26:36;;;;;;;;;;;;;;;13.29;68.30;99707.94;4129367;28;20472;-68
2024/03/16 01:28:37;;;;;;;;;;;;;;;13.17;68.45;99702.94;4129213;28;19913;-68
2024/03/16 01:30:38;;;;;;;;;;;;;;;13.26;68.44;99699.22;4129883;28;20278;-69
2024/03/16 01:32:38;;;;;;;;;;;;;;;13.18;68.12;99696.56;4132299;28;19910;-68
2024/03/16 01:34:40;;;;;;;;;;;;;;;13.13;68.32;99690.03;4133539;28;19920;-69
2024/03/16 01:36:40;;;;;;;;;;;;;;;13.31;68.01;99696.03;4148737;28;19977;-68
2024/03/16 01:38:40;;;;;;;;;;;;;;;13.14;68.43;99697.88;4133218;28;19902;-69
2024/03/16 01:40:42;;;;;;;;;;;;;;;13.00;69.00;99695.91;4121469;28;19929;-69
2024/03/16 01:42:43;;;;;;;;;;;;;;;13.04;68.83;99697.22;4114362;28;19917;-67
2024/03/16 01:45:01;;;;;;;;;;;;;;;13.01;68.64;99687.69;4114348;28;19910;-67
2024/03/16 01:47:03;;;;;;;;;;;;;;;13.26;68.10;99688.47;4113612;28;20409;-68
2024/03/16 01:49:03;;;;;;;;;;;;;;;13.16;68.13;99685.16;4113920;28;19910;-68
2024/03/16 01:51:03;;;;;;;;;;;;;;;13.16;68.48;99690.50;4112161;28;19913;-68
2024/03/16 01:53:04;;;;;;;;;;;;;;;13.01;68.51;99681.50;4113949;28;19922;-68
2024/03/16 01:55:05;;;;;;;;;;;;;;;13.02;68.57;99685.84;4113289;28;19918;-68
2024/03/16 01:57:06;;;;;;;;;;;;;;;12.83;69.03;99687.88;4116839;28;20009;-69
2024/03/16 01:59:06;;;;;;;;;;;;;;;13.06;68.46;99684.50;4117428;28;19910;-68
2024/03/16 02:01:06;;;;;;;;;;;;;;;13.02;68.50;99684.00;4116699;28;20085;-68
2024/03/16 02:03:07;;;;;;;;;;;;;;;13.08;68.48;99687.84;4118570;28;19910;-68
2024/03/16 02:05:08;;;;;;;;;;;;;;;13.04;68.67;99697.22;4121829;28;19910;-68
2024/03/16 02:07:10;;;;;;;;;;;;;;;13.01;69.09;99692.22;4120375;28;20533;-68
2024/03/16 02:09:10;;;;;;;;;;;;;;;13.13;68.66;99695.38;4116684;28;19957;-66
2024/03/16 02:11:10;;;;;;;;;;;;;;;12.91;69.25;99687.88;4116711;28;20333;-67
2024/03/16 02:13:11;;;;;;;;;;;;;;;12.75;69.95;99690.56;4116852;28;19905;-68
2024/03/16 02:15:13;;;;;;;;;;;;;;;12.77;70.40;99691.22;4116154;28;19914;-67
2024/03/16 02:17:13;;;;;;;;;;;;;;;12.79;70.24;99675.78;4116907;28;19933;-67
2024/03/16 02:19:13;;;;;;;;;;;;;;;12.54;71.29;99681.16;4115948;28;19910;-66
2024/03/16 02:21:14;;;;;;;;;;;;;;;12.74;71.05;99675.47;4116251;28;20256;-69
2024/03/16 02:23:17;;;;;;;;;;;;;;;12.66;70.48;99673.63;4131754;28;20000;-68
2024/03/16 02:25:18;;;;;;;;;;;;;;;12.74;70.77;99676.31;4116715;28;20610;-68
2024/03/16 02:27:20;;;;;;;;;;;;;;;12.88;70.28;99677.47;4116641;28;19916;-68
2024/03/16 02:29:20;;;;;;;;;;;;;;;12.56;70.64;99673.81;4116715;28;19910;-68
2024/03/16 02:31:20;;;;;;;;;;;;;;;12.64;70.78;99670.25;4116338;28;20401;-68
2024/03/16 02:33:21;;;;;;;;;;;;;;;12.73;70.65;99673.81;4116055;28;20000;-67
2024/03/16 02:35:22;;;;;;;;;;;;;;;12.53;71.09;99674.13;4116160;28;19910;-68
2024/03/16 02:37:24;;;;;;;;;;;;;;;12.60;70.94;99671.63;4116364;28;20369;-68
2024/03/16 02:39:25;;;;;;;;;;;;;;;12.52;71.03;99680.50;4123255;28;19933;-67
2024/03/16 02:41:25;;;;;;;;;;;;;;;12.69;70.61;99680.50;4132387;28;19936;-67
2024/03/16 02:43:26;;;;;;;;;;;;;;;12.64;70.98;99679.16;4131164;28;19914;-67
2024/03/16 02:45:26;;;;;;;;;;;;;;;12.58;70.93;99682.50;4131953;28;19960;-67
2024/03/16 02:47:26;;;;;;;;;;;;;;;12.59;70.48;99669.94;4132499;28;19948;-68
2024/03/16 02:49:27;;;;;;;;;;;;;;;12.70;70.83;99669.63;4138705;28;19967;-68
2024/03/16 02:51:28;;;;;;;;;;;;;;;12.63;70.62;99687.34;4143054;28;19909;-66
2024/03/16 02:53:28;;;;;;;;;;;;;;;12.58;70.50;99690.53;4147031;28;19915;-67
2024/03/16 02:55:28;;;;;;;;;;;;;;;12.53;71.22;99692.91;4131309;28;19909;-68
2024/03/16 02:57:29;;;;;;;;;;;;;;;12.50;71.56;99700.44;4145868;28;20475;-66
2024/03/16 02:59:29;;;;;;;;;;;;;;;12.31;72.19;99697.88;4133056;28;19909;-69
2024/03/16 03:01:30;;;;;;;;;;;;;;;12.32;72.66;99709.47;4133612;28;20355;-68
2024/03/16 03:03:30;;;;;;;;;;;;;;;12.22;72.88;99709.59;4131768;28;20590;-68
2024/03/16 03:05:31;;;;;;;;;;;;;;;12.27;72.86;99715.31;4131552;28;19952;-68
2024/03/16 03:07:31;;;;;;;;;;;;;;;12.07;73.11;99711.22;4130978;28;19910;-68
2024/03/16 03:09:33;;;;;;;;;;;;;;;12.21;72.92;99709.75;4131533;28;19932;-66
2024/03/16 03:11:33;;;;;;;;;;;;;;;12.31;72.80;99710.47;4131524;28;20305;-68
2024/03/16 03:13:33;;;;;;;;;;;;;;;12.26;72.88;99715.47;4131484;28;19964;-67
2024/03/16 03:15:35;;;;;;;;;;;;;;;12.35;72.53;99729.72;4130727;28;19945;-66
2024/03/16 03:17:35;;;;;;;;;;;;;;;12.18;73.28;99718.97;4131748;28;19914;-67
2024/03/16 03:19:36;;;;;;;;;;;;;;;12.01;74.15;99718.06;4130327;28;19944;-68
2024/03/16 03:21:36;;;;;;;;;;;;;;;12.13;74.15;99722.16;4131108;28;19936;-68
2024/03/16 03:23:36;;;;;;;;;;;;;;;12.23;74.06;99723.84;4147066;28;19989;-69
2024/03/16 03:25:37;;;;;;;;;;;;;;;12.04;75.02;99720.44;4131497;28;19953;-70
2024/03/16 03:27:37;;;;;;;;;;;;;;;12.02;75.35;99709.88;4131134;28;20370;-67
2024/03/16 03:29:37;;;;;;;;;;;;;;;12.22;75.12;99701.53;4131623;28;19914;-67
2024/03/16 03:31:38;;;;;;;;;;;;;;;12.06;75.12;99713.06;4131426;28;20409;-67
2024/03/16 03:33:40;;;;;;;;;;;;;;;12.06;75.24;99714.91;4131038;28;19920;-67
2024/03/16 03:35:40;;;;;;;;;;;;;;;12.10;75.19;99709.06;4131074;28;20326;-67
2024/03/16 03:37:40;;;;;;;;;;;;;;;12.15;75.11;99721.97;4131037;28;20069;-67
2024/03/16 03:39:41;;;;;;;;;;;;;;;12.26;74.74;99727.03;4131185;28;19919;-66
2024/03/16 03:41:41;;;;;;;;;;;;;;;12.20;74.89;99722.31;4131147;28;19910;-66
2024/03/16 03:43:47;;;;;;;;;;;;;;;12.17;74.71;99728.84;4131827;28;20397;-65
2024/03/16 03:45:53;;;;;;;;;;;;;;;12.26;74.64;99732.41;4145994;28;20563;-65
2024/03/16 03:48:14;;;;;;;;;;;;;;;12.37;74.08;99743.81;4131163;28;19917;-66
2024/03/16 03:50:23;;;;;;;;;;;;;;;12.42;73.77;99731.56;4130066;28;19910;-66
2024/03/16 03:52:23;;;;;;;;;;;;;;;12.28;74.09;99735.72;4135677;28;20386;-67
2024/03/16 03:54:24;;;;;;;;;;;;;;;12.38;73.98;99740.09;4135858;28;19976;-67
2024/03/16 03:56:24;;;;;;;;;;;;;;;12.37;74.05;99739.28;4131122;28;19909;-67
2024/03/16 03:58:24;;;;;;;;;;;;;;;12.38;73.77;99735.59;4130440;28;20008;-68
2024/03/16 04:00:24;;;;;;;;;;;;;;;12.15;74.45;99735.38;4131464;28;19913;-68
2024/03/16 04:02:25;;;;;;;;;;;;;;;12.12;74.89;99743.72;4143936;28;19917;-71
2024/03/16 04:04:25;;;;;;;;;;;;;;;11.94;75.44;99747.31;4131059;28;19910;-68
2024/03/16 04:06:26;;;;;;;;;;;;;;;11.99;75.63;99742.34;4145721;28;20540;-66
2024/03/16 04:08:26;;;;;;;;;;;;;;;11.98;75.58;99745.19;4129547;28;19917;-68
2024/03/16 04:10:26;;;;;;;;;;;;;;;12.05;75.53;99740.84;4130616;28;19909;-68
2024/03/16 04:12:27;;;;;;;;;;;;;;;12.09;75.64;99746.75;4130746;28;19910;-67
2024/03/16 04:14:27;;;;;;;;;;;;;;;12.28;75.12;99745.63;4145572;28;19963;-69
2024/03/16 04:16:27;;;;;;;;;;;;;;;12.34;74.59;99750.31;4130553;28;19910;-68
2024/03/16 04:18:28;;;;;;;;;;;;;;;12.24;74.28;99747.78;4144483;28;19985;-73
2024/03/16 04:20:29;;;;;;;;;;;;;;;12.46;73.70;99753.56;4147994;28;19910;-68
2024/03/16 04:22:36;;;;;;;;;;;;;;;12.33;73.73;99759.34;4150694;28;19960;-68
2024/03/16 04:24:36;;;;;;;;;;;;;;;12.21;73.90;99749.97;4135625;28;19909;-67
2024/03/16 04:26:37;;;;;;;;;;;;;;;12.10;73.69;99751.06;4130854;28;19952;-67
2024/03/16 04:28:37;;;;;;;;;;;;;;;12.19;73.25;99758.13;4131218;28;19917;-68
2024/03/16 04:30:37;;;;;;;;;;;;;;;12.25;72.92;99762.88;4131148;28;19918;-69
2024/03/16 04:32:38;;;;;;;;;;;;;;;12.16;73.34;99762.00;4130698;28;19910;-67
2024/03/16 04:34:39;;;;;;;;;;;;;;;12.33;72.79;99759.34;4130526;28;20472;-67
2024/03/16 04:36:39;;;;;;;;;;;;;;;12.18;72.40;99761.84;4129833;28;19914;-69
2024/03/16 04:38:39;;;;;;;;;;;;;;;12.13;72.72;99758.81;4129821;28;19916;-67
2024/03/16 04:40:39;;;;;;;;;;;;;;;12.17;72.19;99771.72;4130480;28;19909;-70
2024/03/16 04:42:41;;;;;;;;;;;;;;;12.22;71.79;99768.53;4130289;28;20308;-70
2024/03/16 04:44:42;;;;;;;;;;;;;;;12.05;72.05;99770.31;4131098;28;20028;-68
2024/03/16 04:46:42;;;;;;;;;;;;;;;12.02;72.04;99771.47;4129953;28;19945;-67
2024/03/16 04:48:42;;;;;;;;;;;;;;;11.97;71.97;99768.47;4130057;28;19909;-68
2024/03/16 04:50:44;;;;;;;;;;;;;;;12.02;71.56;99774.16;4128490;28;19910;-68
2024/03/16 04:52:44;;;;;;;;;;;;;;;11.80;71.55;99774.72;4130066;28;19910;-68
2024/03/16 04:54:45;;;;;;;;;;;;;;;11.76;71.94;99773.34;4130268;28;19963;-69
2024/03/16 04:56:45;;;;;;;;;;;;;;;11.98;71.67;99772.81;4129192;28;20382;-67
2024/03/16 04:58:45;;;;;;;;;;;;;;;11.85;71.83;99778.56;4144282;28;19913;-67
2024/03/16 05:00:46;;;;;;;;;;;;;;;11.89;71.47;99778.25;4129117;28;20009;-67
2024/03/16 05:02:48;;;;;;;;;;;;;;;11.96;71.74;99779.28;4129901;28;19916;-68
2024/03/16 05:04:48;;;;;;;;;;;;;;;11.88;71.61;99774.75;4129801;28;19944;-67
2024/03/16 05:06:49;;;;;;;;;;;;;;;12.13;70.77;99774.88;4130017;28;19917;-68
2024/03/16 05:08:49;;;;;;;;;;;;;;;11.95;71.36;99780.31;4130075;28;19931;-68
2024/03/16 05:10:52;;;;;;;;;;;;;;;11.99;71.17;99771.81;4130245;28;20326;-68
2024/03/16 05:12:53;;;;;;;;;;;;;;;11.97;71.25;99773.81;4129693;28;19914;-67
2024/03/16 05:14:53;;;;;;;;;;;;;;;11.94;71.55;99774.09;4144538;28;19956;-68
2024/03/16 05:16:53;;;;;;;;;;;;;;;11.94;71.31;99776.78;4130515;28;19909;-68
2024/03/16 05:18:54;;;;;;;;;;;;;;;12.03;71.37;99783.06;4129878;28;20353;-67
2024/03/16 05:20:54;;;;;;;;;;;;;;;12.11;71.78;99788.44;4128154;28;19940;-68
2024/03/16 05:22:54;;;;;;;;;;;;;;;11.99;71.74;99790.56;4144630;28;19976;-67
2024/03/16 05:24:55;;;;;;;;;;;;;;;12.24;70.97;99800.53;4129892;28;20441;-68
2024/03/16 05:26:55;;;;;;;;;;;;;;;12.29;70.50;99801.72;4129768;28;19937;-67
2024/03/16 05:28:55;;;;;;;;;;;;;;;12.32;70.33;99798.72;4130249;28;19913;-67
2024/03/16 05:30:56;;;;;;;;;;;;;;;12.48;69.94;99805.13;4129663;28;19909;-67
2024/03/16 05:32:57;;;;;;;;;;;;;;;12.48;69.18;99799.78;4129620;28;19969;-67
2024/03/16 05:34:57;;;;;;;;;;;;;;;12.29;69.99;99801.72;4129621;28;19914;-68
2024/03/16 05:36:58;;;;;;;;;;;;;;;12.24;70.29;99804.06;4129353;28;19964;-67
2024/03/16 05:38:59;;;;;;;;;;;;;;;12.45;69.47;99797.44;4129625;28;20493;-67
2024/03/16 05:40:59;;;;;;;;;;;;;;;12.52;68.82;99803.81;4129627;28;19910;-69
2024/03/16 05:43:00;;;;;;;;;;;;;;;12.56;68.73;99802.50;4129619;28;19917;-68
2024/03/16 05:45:00;;;;;;;;;;;;;;;12.36;69.38;99807.28;4144477;28;19909;-67
2024/03/16 05:47:00;;;;;;;;;;;;;;;12.20;69.68;99808.06;4132539;28;20145;-70
2024/03/16 05:49:06;;;;;;;;;;;;;;;12.39;69.35;99811.47;4144607;28;19990;-71
2024/03/16 05:51:07;;;;;;;;;;;;;;;12.51;68.60;99809.34;4145053;28;20298;-70
2024/03/16 05:53:08;;;;;;;;;;;;;;;12.43;68.77;99813.66;4143004;28;19906;-68
2024/03/16 05:55:08;;;;;;;;;;;;;;;12.52;68.75;99809.19;4159128;28;19956;-69
2024/03/16 05:57:08;;;;;;;;;;;;;;;12.26;69.12;99817.28;4134429;28;19909;-68
2024/03/16 05:59:09;;;;;;;;;;;;;;;12.21;69.46;99816.94;4129030;28;19909;-69
2024/03/16 06:01:09;;;;;;;;;;;;;;;12.48;68.42;99815.88;4129863;28;19914;-67
2024/03/16 06:03:10;;;;;;;;;;;;;;;12.25;69.06;99821.84;4144745;28;19963;-68
2024/03/16 06:05:11;;;;;;;;;;;;;;;12.34;68.95;99825.38;4129983;28;19906;-68
2024/03/16 06:07:12;;;;;;;;;;;;;;;12.17;69.58;99830.66;4145059;28;19909;-67
2024/03/16 06:09:12;;;;;;;;;;;;;;;12.22;69.20;99826.69;4129757;28;19910;-69
2024/03/16 06:11:13;;;;;;;;;;;;;;;12.24;69.41;99836.22;4131287;28;20269;-68
2024/03/16 06:13:13;;;;;;;;;;;;;;;12.22;69.37;99832.88;4130833;28;19905;-67
2024/03/16 06:15:14;;;;;;;;;;;;;;;12.22;69.30;99843.59;4130292;28;20254;-69
2024/03/16 06:17:14;;;;;;;;;;;;;;;12.28;69.30;99845.59;4129462;28;19917;-68
2024/03/16 06:19:14;;;;;;;;;;;;;;;12.24;69.50;99840.72;4130053;28;19947;-68
2024/03/16 06:21:15;;;;;;;;;;;;;;;12.16;69.92;99846.91;4127880;28;19914;-68
2024/03/16 06:23:15;;;;;;;;;;;;;;;12.28;69.91;99850.97;4129482;28;19963;-69
2024/03/16 06:25:17;;;;;;;;;;;;;;;12.14;70.72;99851.59;4130144;28;20262;-67
2024/03/16 06:27:21;;;;;;;;;;;;;;;12.19;70.81;99848.44;4130841;28;20434;-67
2024/03/16 06:29:25;;;;;;;;;;;;;;;12.21;70.78;99852.63;4131331;28;19916;-66
2024/03/16 06:31:32;;;;;;;;;;;;;;;12.24;70.66;99855.00;4144378;28;19962;-67
2024/03/16 06:33:33;;;;;;;;;;;;;;;12.11;70.89;99863.47;4129612;28;20646;-68
2024/03/16 06:35:33;;;;;;;;;;;;;;;12.17;70.98;99864.69;4129331;28;19914;-67
2024/03/16 06:37:36;;;;;;;;;;;;;;;12.17;71.11;99867.34;4129338;28;20424;-68
2024/03/16 06:39:37;;;;;;;;;;;;;;;12.01;71.42;99870.78;4129647;28;20413;-67
2024/03/16 06:41:37;;;;;;;;;;;;;;;12.17;71.73;99868.19;4144499;28;19909;-67
2024/03/16 06:43:38;;;;;;;;;;;;;;;12.26;71.27;99869.06;4132609;28;20290;-68
2024/03/16 06:45:38;;;;;;;;;;;;;;;12.09;71.79;99880.72;4132806;28;19914;-68
2024/03/16 06:47:38;;;;;;;;;;;;;;;12.13;71.99;99879.38;4137901;28;19914;-69
2024/03/16 06:49:39;;;;;;;;;;;;;;;12.05;72.47;99882.00;4147627;28;19909;-69
2024/03/16 06:51:39;;;;;;;;;;;;;;;11.88;73.47;99895.28;4164400;28;19948;-69
2024/03/16 06:53:43;;;;;;;;;;;;;;;12.15;72.92;99890.78;4148923;28;19898;-71
2024/03/16 06:55:54;;;;;;;;;;;;;;;11.94;73.83;99888.47;4149460;28;19910;-68
2024/03/16 06:57:54;;;;;;;;;;;;;;;12.00;74.76;99882.50;4150114;28;19909;-68
2024/03/16 06:59:54;;;;;;;;;;;;;;;11.84;75.22;99891.22;4149401;28;20212;-68
2024/03/16 07:01:55;;;;;;;;;;;;;;;11.97;75.29;99890.81;4146675;28;19913;-69
2024/03/16 07:03:55;;;;;;;;;;;;;;;11.98;74.93;99889.84;4132210;28;19921;-68
2024/03/16 07:05:56;;;;;;;;;;;;;;;11.95;75.14;99900.84;4131413;28;19913;-67
2024/03/16 07:07:57;;;;;;;;;;;;;;;11.88;75.33;99902.47;4147445;28;19995;-67
2024/03/16 07:09:58;;;;;;;;;;;;;;;11.93;75.08;99903.66;4133762;28;19913;-68
2024/03/16 07:11:58;;;;;;;;;;;;;;;11.99;74.83;99900.41;4150317;28;19923;-67
2024/03/16 07:13:58;;;;;;;;;;;;;;;12.12;75.04;99901.81;4134398;28;20399;-71
2024/03/16 07:16:00;;;;;;;;;;;;;;;12.24;74.40;99905.06;4151844;28;19909;-68
2024/03/16 07:18:01;;;;;;;;;;;;;;;12.14;74.50;99905.19;4143801;28;19925;-67
2024/03/16 07:20:03;;;;;;;;;;;;;;;12.25;73.94;99910.28;4142786;28;19913;-68
2024/03/16 07:22:03;;;;;;;;;;;;;;;12.32;73.41;99911.31;4139338;28;19914;-68
2024/03/16 07:24:04;;;;;;;;;;;;;;;12.24;74.01;99915.78;4136074;28;19910;-68
2024/03/16 07:26:05;;;;;;;;;;;;;;;12.20;73.73;99923.28;4151531;28;19921;-69
2024/03/16 07:28:07;;;;;;;;;;;;;;;12.27;73.68;99921.69;4137807;28;19914;-67
2024/03/16 07:30:08;;;;;;;;;;;;;;;12.25;73.97;99921.00;4131398;28;19906;-69
2024/03/16 07:32:08;;;;;;;;;;;;;;;12.46;73.30;99927.81;4146806;28;20341;-66
2024/03/16 07:34:08;;;;;;;;;;;;;;;12.32;73.69;99923.88;4131546;28;20388;-67
2024/03/16 07:36:09;;;;;;;;;;;;;;;12.43;73.33;99931.63;4131473;28;20421;-68
2024/03/16 07:38:09;;;;;;;;;;;;;;;12.55;73.00;99937.56;4131402;28;19919;-67
2024/03/16 07:40:13;;;;;;;;;;;;;;;12.58;72.94;99939.09;4130785;28;19909;-67
2024/03/16 07:42:13;;;;;;;;;;;;;;;12.56;73.14;99935.72;4131561;28;20397;-68
2024/03/16 07:44:14;;;;;;;;;;;;;;;12.51;72.97;99940.75;4131362;28;19913;-68
2024/03/16 07:46:15;;;;;;;;;;;;;;;12.46;73.00;99947.41;4146445;28;19909;-67
2024/03/16 07:48:15;;;;;;;;;;;;;;;12.69;72.23;99946.84;4131552;28;20013;-67
2024/03/16 07:50:16;;;;;;;;;;;;;;;12.64;72.17;99944.66;4130433;28;19913;-67
2024/03/16 07:52:16;;;;;;;;;;;;;;;12.70;72.06;99945.00;4131599;28;19910;-66
2024/03/16 07:54:16;;;;;;;;;;;;;;;12.70;71.94;99953.03;4134061;28;20401;-67
2024/03/16 07:56:18;;;;;;;;;;;;;;;12.56;72.37;99951.81;4133448;28;19910;-67
2024/03/16 07:58:18;;;;;;;;;;;;;;;12.82;71.36;99950.91;4131700;28;19909;-67
2024/03/16 08:00:20;;;;;;;;;;;;;;;12.77;71.82;99959.44;4131153;28;19910;-66
2024/03/16 08:02:20;;;;;;;;;;;;;;;12.87;71.38;99954.78;4130506;28;19910;-67
2024/03/16 08:04:21;;;;;;;;;;;;;;;12.76;71.86;99953.25;4131116;28;19921;-68
2024/03/16 08:06:22;;;;;;;;;;;;;;;12.85;71.90;99961.31;4131289;28;19920;-67
2024/03/16 08:08:22;;;;;;;;;;;;;;;12.71;72.58;99960.09;4131261;28;19910;-67
2024/03/16 08:10:22;;;;;;;;;;;;;;;12.63;72.92;99958.19;4131398;28;19913;-68
2024/03/16 08:12:23;;;;;;;;;;;;;;;12.90;72.35;99954.47;4131304;28;19916;-68
2024/03/16 08:14:24;;;;;;;;;;;;;;;13.17;71.37;99954.41;4131159;28;19914;-66
2024/03/16 08:16:24;;;;;;;;;;;;;;;13.40;71.08;99962.69;4145511;28;19940;-67
2024/03/16 08:18:25;;;;;;;;;;;;;;;13.41;70.04;99957.16;4131179;28;19910;-67
2024/03/16 08:20:25;;;;;;;;;;;;;;;13.55;69.82;99974.47;4129207;28;20389;-68
2024/03/16 08:22:26;;;;;;;;;;;;;;;13.45;69.95;99972.94;4146320;28;19913;-68
2024/03/16 08:24:26;;;;;;;;;;;;;;;13.67;69.50;99966.06;4130894;28;20392;-67
2024/03/16 08:26:27;;;;;;;;;;;;;;;13.54;69.29;99978.16;4130525;28;19996;-67
2024/03/16 08:28:28;;;;;;;;;;;;;;;13.86;68.59;99971.13;4130929;28;20389;-67
2024/03/16 08:30:28;;;;;;;;;;;;;;;13.93;68.56;99978.50;4130724;28;19909;-67
2024/03/16 08:32:29;;;;;;;;;;;;;;;13.73;68.41;99977.00;4146152;28;19917;-69
2024/03/16 08:34:29;;;;;;;;;;;;;;;13.72;68.84;99985.22;4131330;28;20329;-68
2024/03/16 08:36:30;;;;;;;;;;;;;;;13.56;69.39;99986.88;4130267;28;19916;-68
2024/03/16 08:38:32;;;;;;;;;;;;;;;13.44;69.83;99982.81;4131257;28;19925;-67
2024/03/16 08:40:32;;;;;;;;;;;;;;;13.47;70.36;99989.69;4130878;28;20303;-67
2024/03/16 08:42:33;;;;;;;;;;;;;;;13.83;69.29;99992.13;4130230;28;19964;-67
2024/03/16 08:44:34;;;;;;;;;;;;;;;13.71;69.16;99997.81;4130657;28;19988;-68
2024/03/16 08:46:35;;;;;;;;;;;;;;;13.74;68.17;99991.25;4124776;28;19956;-68
2024/03/16 08:48:35;;;;;;;;;;;;;;;13.69;68.99;99982.88;4134490;28;20358;-68
2024/03/16 08:50:35;;;;;;;;;;;;;;;13.86;68.77;99998.00;4139424;28;19920;-68
2024/03/16 08:52:36;;;;;;;;;;;;;;;14.00;67.79;99987.56;4139441;28;20393;-68
2024/03/16 08:54:36;;;;;;;;;;;;;;;14.14;67.47;99991.41;4138822;28;19952;-67
2024/03/16 08:56:36;;;;;;;;;;;;;;;13.96;67.49;99995.13;4139135;28;19909;-68
2024/03/16 08:58:38;;;;;;;;;;;;;;;14.09;66.78;99985.72;4147330;28;19940;-70
2024/03/16 09:00:38;;;;;;;;;;;;;;;13.98;66.51;99993.13;4133129;28;19932;-67
2024/03/16 09:02:38;;;;;;;;;;;;;;;14.13;66.88;100000.47;4114199;28;19914;-68
2024/03/16 09:04:39;;;;;;;;;;;;;;;14.20;66.20;99994.28;4145193;28;19913;-68
2024/03/16 09:06:40;;;;;;;;;;;;;;;13.97;66.34;99995.97;4137865;28;19917;-69
2024/03/16 09:08:41;;;;;;;;;;;;;;;14.05;66.71;100001.34;4143216;28;19953;-67
2024/03/16 09:10:41;;;;;;;;;;;;;;;14.17;65.95;99999.97;4141420;28;19925;-67
2024/03/16 09:12:41;;;;;;;;;;;;;;;14.55;65.39;100006.66;4141914;28;19913;-68
2024/03/16 09:14:42;;;;;;;;;;;;;;;14.40;65.36;100004.66;4156822;28;20407;-67
2024/03/16 09:16:43;;;;;;;;;;;;;;;14.30;65.58;100010.25;4131026;28;20411;-66
2024/03/16 09:18:45;;;;;;;;;;;;;;;14.29;65.64;100013.06;4130522;28;19910;-70
2024/03/16 09:20:46;;;;;;;;;;;;;;;14.36;65.25;100019.44;4126759;28;19996;-67
2024/03/16 09:22:47;;;;;;;;;;;;;;;14.65;64.56;100018.03;4129725;28;19921;-69
2024/03/16 09:24:48;;;;;;;;;;;;;;;14.57;64.74;100020.75;4128497;28;19910;-69
2024/03/16 09:26:49;;;;;;;;;;;;;;;14.41;64.86;100021.63;4129735;28;19964;-69
2024/03/16 09:28:51;;;;;;;;;;;;;;;14.22;64.82;100023.66;4130014;28;19936;-68
2024/03/16 09:30:51;;;;;;;;;;;;;;;14.39;64.29;100026.38;4144604;28;19935;-68
2024/03/16 09:32:51;;;;;;;;;;;;;;;14.39;64.44;100029.88;4128876;28;19948;-68
2024/03/16 09:34:52;;;;;;;;;;;;;;;14.64;64.32;100024.47;4129683;28;19963;-68
2024/03/16 09:36:52;;;;;;;;;;;;;;;14.44;64.33;100022.16;4144329;28;19943;-69
2024/03/16 09:38:53;;;;;;;;;;;;;;;14.27;64.47;100029.38;4130008;28;19920;-69
2024/03/16 09:40:55;;;;;;;;;;;;;;;14.28;64.24;100030.22;4129713;28;19914;-68
2024/03/16 09:42:56;;;;;;;;;;;;;;;14.33;63.67;100030.56;4129768;28;20219;-68
2024/03/16 09:44:57;;;;;;;;;;;;;;;14.39;62.98;100029.06;4129659;28;20424;-67
2024/03/16 09:46:59;;;;;;;;;;;;;;;14.37;63.10;100029.19;4129546;28;19917;-67
2024/03/16 09:48:59;;;;;;;;;;;;;;;14.55;62.49;100047.03;4131826;28;19916;-68
2024/03/16 09:51:00;;;;;;;;;;;;;;;14.64;62.74;100043.31;4135217;28;19941;-67
2024/03/16 09:53:01;;;;;;;;;;;;;;;14.72;62.08;100051.38;4145785;28;19959;-68
2024/03/16 09:55:02;;;;;;;;;;;;;;;14.71;62.79;100049.69;4138940;28;19913;-68
2024/03/16 09:57:03;;;;;;;;;;;;;;;14.48;62.88;100054.91;4144858;28;19945;-67
2024/03/16 09:59:12;;;;;;;;;;;;;;;14.68;62.37;100049.22;4128312;28;19914;-68
2024/03/16 10:01:15;;;;;;;;;;;;;;;14.64;61.96;100048.69;4130037;28;19920;-69
2024/03/16 10:03:15;;;;;;;;;;;;;;;14.84;61.83;100051.00;4126723;28;19917;-68
2024/03/16 10:05:17;;;;;;;;;;;;;;;14.72;61.77;100045.16;4128897;28;20336;-67
2024/03/16 10:07:17;;;;;;;;;;;;;;;14.50;61.47;100051.03;4130046;28;19921;-67
2024/03/16 10:09:18;;;;;;;;;;;;;;;14.44;61.72;100042.81;4129686;28;19910;-69
2024/03/16 10:11:19;;;;;;;;;;;;;;;14.53;61.48;100041.78;4129717;28;19948;-68
2024/03/16 10:13:19;;;;;;;;;;;;;;;14.56;61.13;100046.84;4129700;28;19997;-68
2024/03/16 10:15:20;;;;;;;;;;;;;;;14.66;61.50;100043.94;4129484;28;19956;-68
2024/03/16 10:17:21;;;;;;;;;;;;;;;14.48;61.41;100033.41;4131413;28;20406;-68
2024/03/16 10:19:22;;;;;;;;;;;;;;;14.54;61.19;100037.25;4132608;28;19940;-68
2024/03/16 10:21:22;;;;;;;;;;;;;;;14.79;60.93;100046.97;4130063;28;19917;-68
2024/03/16 10:23:23;;;;;;;;;;;;;;;15.09;60.15;100047.22;4132915;28;19996;-67
2024/03/16 10:25:24;;;;;;;;;;;;;;;15.34;59.12;100052.50;4132643;28;19952;-68
2024/03/16 10:27:25;;;;;;;;;;;;;;;15.43;58.99;100059.50;4136688;28;19985;-67
2024/03/16 10:29:25;;;;;;;;;;;;;;;15.22;59.54;100056.56;4145508;28;20190;-68